createdAt,value
2022-09-28T00:01:09.263Z,5.55
2022-09-28T00:03:36.465Z,6.07
2022-09-28T00:06:09.076Z,6.07
2022-09-28T00:08:36.363Z,6.28
2022-09-28T00:11:05.102Z,6.28
2022-09-28T00:13:32.998Z,5.93
2022-09-28T00:16:04.792Z,6.20
2022-09-28T00:18:32.298Z,6.13
2022-09-28T00:21:06.724Z,6.22
2022-09-28T00:23:33.781Z,6.25
2022-09-28T00:26:05.592Z,6.53
2022-09-28T00:28:32.495Z,6.78
2022-09-28T00:30:59.399Z,6.20
2022-09-28T00:33:26.185Z,6.97
2022-09-28T00:35:57.810Z,7.43
2022-09-28T00:38:29.355Z,6.90
2022-09-28T00:40:56.282Z,7.40
2022-09-28T00:43:24.483Z,7.20
2022-09-28T00:46:11.742Z,7.25
2022-09-28T00:48:41.426Z,7.85
2022-09-28T00:51:12.518Z,8.07
2022-09-28T00:53:43.414Z,8.32
2022-09-28T00:56:19.191Z,8.10
2022-09-28T00:58:50.344Z,8.95
2022-09-28T01:01:17.278Z,9.57
2022-09-28T01:03:45.586Z,9.52
2022-09-28T01:06:20.560Z,8.38
2022-09-28T01:08:51.173Z,8.30
2022-09-28T01:11:19.512Z,8.10
2022-09-28T01:13:48.413Z,8.95
2022-09-28T01:16:20.583Z,9.40
2022-09-28T01:18:53.863Z,9.25
2022-09-28T01:21:23.178Z,10.23
2022-09-28T01:24:14.175Z,9.68
2022-09-28T01:26:48.769Z,9.43
2022-09-28T01:29:33.494Z,10.00
2022-09-28T01:32:14.399Z,10.10
2022-09-28T01:34:51.613Z,10.10
2022-09-28T01:37:22.161Z,10.55
2022-09-28T01:39:51.566Z,11.05
2022-09-28T01:42:29.671Z,10.68
2022-09-28T01:45:02.629Z,10.25
2022-09-28T01:47:32.284Z,10.70
2022-09-28T01:50:07.246Z,11.13
2022-09-28T01:52:59.488Z,11.57
2022-09-28T01:55:34.266Z,11.90
2022-09-28T01:58:00.999Z,11.88
2022-09-28T02:00:28.567Z,11.45
2022-09-28T02:03:19.743Z,11.82
2022-09-28T02:05:56.190Z,13.18
2022-09-28T02:08:36.723Z,13.10
2022-09-28T02:11:06.118Z,12.90
2022-09-28T02:13:47.661Z,12.40
2022-09-28T02:16:25.989Z,12.40
2022-09-28T02:18:53.150Z,12.10
2022-09-28T02:21:39.488Z,12.48
2022-09-28T02:24:38.349Z,12.13
2022-09-28T02:27:24.608Z,11.40
2022-09-28T02:29:51.383Z,12.10
2022-09-28T02:32:20.189Z,11.73
2022-09-28T02:34:47.153Z,12.60
2022-09-28T02:37:14.192Z,12.45
2022-09-28T02:39:40.928Z,13.02
2022-09-28T02:42:37.353Z,11.43
2022-09-28T02:45:34.005Z,12.93
2022-09-28T02:48:11.845Z,13.07
2022-09-28T02:51:10.039Z,13.02
2022-09-28T02:53:39.805Z,13.23
2022-09-28T02:56:25.132Z,13.15
2022-09-28T02:59:21.567Z,12.68
2022-09-28T03:02:00.336Z,11.75
2022-09-28T03:04:53.548Z,12.95
2022-09-28T03:07:44.349Z,13.07
2022-09-28T03:10:32.296Z,12.90
2022-09-28T03:12:59.431Z,12.85
2022-09-28T03:15:28.117Z,12.90
2022-09-28T03:17:54.936Z,13.13
2022-09-28T03:20:21.808Z,12.82
2022-09-28T03:23:05.942Z,12.40
2022-09-28T03:25:35.360Z,12.18
2022-09-28T03:28:02.828Z,11.98
2022-09-28T03:30:29.602Z,11.77
2022-09-28T03:33:00.397Z,11.80
2022-09-28T03:35:27.253Z,11.73
2022-09-28T03:37:57.440Z,11.02
2022-09-28T03:40:24.676Z,11.35
2022-09-28T03:42:51.681Z,11.57
2022-09-28T03:45:18.421Z,11.20
2022-09-28T03:47:46.498Z,11.40
2022-09-28T03:50:13.663Z,11.55
2022-09-28T03:52:40.410Z,11.27
2022-09-28T03:55:07.518Z,11.18
2022-09-28T03:57:34.241Z,11.68
2022-09-28T04:00:01.166Z,11.32
2022-09-28T04:02:28.116Z,10.70
2022-09-28T04:04:54.898Z,10.88
2022-09-28T04:07:21.639Z,11.70
2022-09-28T04:09:48.372Z,11.38
2022-09-28T04:12:15.386Z,11.93
2022-09-28T04:14:42.180Z,11.95
2022-09-28T04:17:08.938Z,12.32
2022-09-28T04:19:35.817Z,11.70
2022-09-28T04:22:02.660Z,12.05
2022-09-28T04:24:29.389Z,11.70
2022-09-28T04:27:16.069Z,12.13
2022-09-28T04:29:43.128Z,11.60
2022-09-28T04:32:10.973Z,11.30
2022-09-28T04:34:41.857Z,11.57
2022-09-28T04:37:10.582Z,10.75
2022-09-28T04:39:37.395Z,11.50
2022-09-28T04:42:04.268Z,11.13
2022-09-28T04:44:31.009Z,11.32
2022-09-28T04:46:59.716Z,11.40
2022-09-28T04:49:29.732Z,11.48
2022-09-28T04:51:56.474Z,10.80
2022-09-28T04:54:23.175Z,11.25
2022-09-28T04:56:51.197Z,11.57
2022-09-28T04:59:18.083Z,10.88
2022-09-28T05:01:44.993Z,11.10
2022-09-28T05:04:11.866Z,11.15
2022-09-28T05:06:38.636Z,11.48
2022-09-28T05:09:05.397Z,11.88
2022-09-28T05:11:32.196Z,11.02
2022-09-28T05:13:58.991Z,11.50
2022-09-28T05:16:26.843Z,12.93
2022-09-28T05:18:57.063Z,12.35
2022-09-28T05:21:25.464Z,12.82
2022-09-28T05:23:56.012Z,13.18
2022-09-28T05:26:23.400Z,14.48
2022-09-28T05:28:50.857Z,12.75
2022-09-28T05:31:17.714Z,13.18
2022-09-28T05:33:44.559Z,12.43
2022-09-28T05:36:11.881Z,13.30
2022-09-28T05:38:38.838Z,11.13
2022-09-28T05:41:06.669Z,11.68
2022-09-28T05:43:33.927Z,11.45
2022-09-28T05:46:00.746Z,11.55
2022-09-28T05:48:28.286Z,11.80
2022-09-28T05:50:55.204Z,11.70
2022-09-28T05:53:22.034Z,11.90
2022-09-28T05:55:48.971Z,11.45
2022-09-28T05:58:16.566Z,11.63
2022-09-28T06:00:43.730Z,11.95
2022-09-28T06:03:14.608Z,11.02
2022-09-28T06:05:41.659Z,10.70
2022-09-28T06:08:10.573Z,11.88
2022-09-28T06:10:37.755Z,10.18
2022-09-28T06:13:05.016Z,9.90
2022-09-28T06:15:33.725Z,9.77
2022-09-28T06:18:01.629Z,10.38
2022-09-28T06:20:31.327Z,10.18
2022-09-28T06:22:58.117Z,9.25
2022-09-28T06:25:27.605Z,9.80
2022-09-28T06:27:59.123Z,9.60
2022-09-28T06:30:27.730Z,9.57
2022-09-28T06:32:56.224Z,10.88
2022-09-28T06:35:25.399Z,9.70
2022-09-28T06:37:53.187Z,9.98
2022-09-28T06:40:21.304Z,10.38
2022-09-28T06:42:58.565Z,9.50
2022-09-28T06:45:27.251Z,9.27
2022-09-28T06:48:01.154Z,10.25
2022-09-28T06:50:33.666Z,9.93
2022-09-28T06:55:28.270Z,10.40
2022-09-28T06:58:03.426Z,10.82
2022-09-28T07:00:34.634Z,10.25
2022-09-28T07:03:19.964Z,10.18
2022-09-28T07:05:51.359Z,10.23
2022-09-28T07:08:18.347Z,10.35
2022-09-28T07:10:47.584Z,10.27
2022-09-28T07:13:41.055Z,10.05
2022-09-28T07:16:03.493Z,10.95
2022-09-28T07:18:30.374Z,9.77
2022-09-28T07:20:57.586Z,10.32
2022-09-28T07:23:26.234Z,10.15
2022-09-28T07:25:53.488Z,8.65
2022-09-28T07:28:21.132Z,11.38
2022-09-28T07:30:48.404Z,9.65
2022-09-28T07:33:17.115Z,9.50
2022-09-28T07:35:52.256Z,10.23
2022-09-28T07:38:19.113Z,9.82
2022-09-28T07:41:05.050Z,8.88
2022-09-28T07:43:32.675Z,8.70
2022-09-28T07:45:59.484Z,7.70
2022-09-28T07:48:26.274Z,8.90
2022-09-28T07:50:55.147Z,8.05
2022-09-28T07:53:24.164Z,7.63
2022-09-28T07:55:52.949Z,8.27
2022-09-28T07:58:20.720Z,8.40
2022-09-28T08:00:48.772Z,7.88
2022-09-28T08:03:17.430Z,7.57
2022-09-28T08:05:45.421Z,7.18
2022-09-28T08:08:12.478Z,7.30
2022-09-28T08:10:41.588Z,6.20
2022-09-28T08:13:11.180Z,6.70
2022-09-28T08:15:38.218Z,6.70
2022-09-28T08:18:05.841Z,6.50
2022-09-28T08:20:52.188Z,6.20
2022-09-28T08:23:20.376Z,5.60
2022-09-28T08:25:49.133Z,5.80
2022-09-28T08:28:17.970Z,4.80
2022-09-28T08:30:45.936Z,4.93
2022-09-28T08:33:21.410Z,4.57
2022-09-28T08:35:48.539Z,4.68
2022-09-28T08:38:15.432Z,4.45
2022-09-28T08:41:00.294Z,4.68
2022-09-28T08:43:55.239Z,4.30
2022-09-28T08:46:27.162Z,4.57
2022-09-28T08:49:20.449Z,4.22
2022-09-28T08:52:01.033Z,4.53
2022-09-28T08:54:40.339Z,4.28
2022-09-28T08:57:20.723Z,4.40
2022-09-28T08:59:54.632Z,4.68
2022-09-28T09:02:39.262Z,4.97
2022-09-28T09:05:14.735Z,4.80
2022-09-28T09:08:04.638Z,4.97
2022-09-28T09:10:40.368Z,5.13
2022-09-28T09:13:42.087Z,4.78
2022-09-28T09:16:33.295Z,5.00
2022-09-28T09:19:00.095Z,5.78
2022-09-28T09:21:41.624Z,5.28
2022-09-28T09:24:27.360Z,4.57
2022-09-28T09:27:32.697Z,4.57
2022-09-28T09:30:19.234Z,4.40
2022-09-28T09:33:05.378Z,4.28
2022-09-28T09:36:06.579Z,4.50
2022-09-28T09:38:50.601Z,4.00
2022-09-28T09:41:26.352Z,4.22
2022-09-28T09:43:58.853Z,4.20
2022-09-28T09:49:27.391Z,3.45
2022-09-28T09:51:58.658Z,3.40
2022-09-28T09:54:49.475Z,3.30
2022-09-28T09:57:23.705Z,3.30
2022-09-28T09:59:50.645Z,2.85
2022-09-28T10:02:30.290Z,3.42
2022-09-28T10:05:02.825Z,3.20
2022-09-28T10:10:02.465Z,2.80
2022-09-28T10:12:31.050Z,3.20
2022-09-28T10:14:57.852Z,3.55
2022-09-28T10:17:27.431Z,3.60
2022-09-28T10:19:56.872Z,3.65
2022-09-28T10:22:27.209Z,4.10
2022-09-28T10:24:57.442Z,4.35
2022-09-28T10:27:30.582Z,4.28
2022-09-28T10:30:17.680Z,4.07
2022-09-28T10:35:41.314Z,4.28
2022-09-28T10:38:19.115Z,4.10
2022-09-28T10:40:51.610Z,4.53
2022-09-28T10:46:12.712Z,4.20
2022-09-28T10:48:51.844Z,5.15
2022-09-28T10:51:18.725Z,4.15
2022-09-28T10:54:05.732Z,3.90
2022-09-28T10:56:39.884Z,4.18
2022-09-28T10:59:40.700Z,3.03
2022-09-28T11:02:13.239Z,3.83
2022-09-28T11:04:49.518Z,3.80
2022-09-28T11:07:24.313Z,2.83
2022-09-28T11:09:52.590Z,3.35
2022-09-28T11:12:29.288Z,2.97
2022-09-28T11:15:05.061Z,2.80
2022-09-28T11:17:39.941Z,2.70
2022-09-28T11:20:27.914Z,3.17
2022-09-28T11:22:59.389Z,2.80
2022-09-28T11:25:31.316Z,2.70
2022-09-28T11:28:01.661Z,2.10
2022-09-28T11:30:31.107Z,1.80
2022-09-28T11:33:15.031Z,1.92
2022-09-28T11:35:51.614Z,1.90
2022-09-28T11:38:54.959Z,1.67
2022-09-28T11:41:33.364Z,1.33
2022-09-28T11:44:10.211Z,1.42
2022-09-28T11:46:58.167Z,1.50
2022-09-28T11:49:45.428Z,1.45
2022-09-28T11:52:30.788Z,1.45
2022-09-28T11:55:12.190Z,1.40
2022-09-28T11:57:42.135Z,1.20
2022-09-28T12:00:16.298Z,1.40
2022-09-28T12:02:49.351Z,1.52
2022-09-28T12:05:30.391Z,1.60
2022-09-28T12:08:27.563Z,1.80
2022-09-28T12:11:17.727Z,2.05
2022-09-28T12:13:48.215Z,1.58
2022-09-28T12:16:53.013Z,1.60
2022-09-28T12:19:18.175Z,1.40
2022-09-28T12:21:56.892Z,1.25
2022-09-28T12:24:29.397Z,1.42
2022-09-28T12:29:59.902Z,1.70
2022-09-28T12:32:50.973Z,1.48
2022-09-28T12:35:42.130Z,1.10
2022-09-28T12:38:41.419Z,1.40
2022-09-28T12:41:42.459Z,1.20
2022-09-28T12:44:37.377Z,1.40
2022-09-28T12:47:13.124Z,1.80
2022-09-28T12:50:36.533Z,1.70
2022-09-28T12:53:06.300Z,1.80
2022-09-28T12:55:51.020Z,1.40
2022-09-28T12:58:26.879Z,1.65
2022-09-28T13:01:26.508Z,1.75
2022-09-28T13:03:59.390Z,1.95
2022-09-28T13:06:37.722Z,1.98
2022-09-28T13:09:21.844Z,2.13
2022-09-28T13:11:54.423Z,2.38
2022-09-28T13:17:28.483Z,2.08
2022-09-28T13:20:08.859Z,2.22
2022-09-28T13:22:55.100Z,2.28
2022-09-28T13:25:25.387Z,2.60
2022-09-28T13:28:01.009Z,2.20
2022-09-28T13:30:27.863Z,2.50
2022-09-28T13:32:58.149Z,2.72
2022-09-28T13:35:25.212Z,3.17
2022-09-28T13:38:17.455Z,3.50
2022-09-28T13:41:06.146Z,3.38
2022-09-28T13:43:45.320Z,3.15
2022-09-28T13:46:42.660Z,3.47
2022-09-28T13:49:35.092Z,3.28
2022-09-28T13:52:28.949Z,3.45
2022-09-28T13:55:10.838Z,2.38
2022-09-28T13:58:02.574Z,3.30
2022-09-28T14:00:38.272Z,3.00
2022-09-28T14:03:26.829Z,2.90
2022-09-28T14:06:00.128Z,2.25
2022-09-28T14:09:01.883Z,2.60
2022-09-28T14:11:34.934Z,2.10
2022-09-28T14:14:11.879Z,1.85
2022-09-28T14:16:41.048Z,2.03
2022-09-28T14:19:29.823Z,2.17
2022-09-28T14:22:18.463Z,1.98
2022-09-28T14:24:55.450Z,1.85
2022-09-28T14:27:33.841Z,1.55
2022-09-28T14:30:18.552Z,1.80
2022-09-28T14:32:57.759Z,1.38
2022-09-28T14:35:39.093Z,1.48
2022-09-28T14:38:33.525Z,1.67
2022-09-28T14:41:10.621Z,1.52
2022-09-28T14:43:46.628Z,1.60
2022-09-28T14:46:19.309Z,1.40
2022-09-28T14:48:54.863Z,1.80
2022-09-28T14:51:30.090Z,1.92
2022-09-28T14:54:02.629Z,1.27
2022-09-28T14:59:00.599Z,1.63
2022-09-28T15:01:28.033Z,2.80
2022-09-28T15:03:56.580Z,1.85
2022-09-28T15:06:24.454Z,1.42
2022-09-28T15:08:51.246Z,1.30
2022-09-28T15:11:25.259Z,1.73
2022-09-28T15:14:06.366Z,1.70
2022-09-28T15:16:33.510Z,1.83
2022-09-28T15:19:29.916Z,2.00
2022-09-28T15:21:56.682Z,1.88
2022-09-28T15:24:26.345Z,1.77
2022-09-28T15:26:53.245Z,1.80
2022-09-28T15:29:22.717Z,1.90
2022-09-28T15:31:53.665Z,1.83
2022-09-28T15:34:56.809Z,2.15
2022-09-28T15:37:38.455Z,2.10
2022-09-28T15:40:15.211Z,1.80
2022-09-28T15:42:42.494Z,2.40
2022-09-28T15:45:26.547Z,2.50
2022-09-28T15:47:58.418Z,2.60
2022-09-28T15:50:28.989Z,2.00
2022-09-28T15:52:58.479Z,2.10
2022-09-28T15:55:37.698Z,2.00
2022-09-28T15:58:06.152Z,2.45
2022-09-28T16:00:33.142Z,2.75
2022-09-28T16:03:19.190Z,2.65
2022-09-28T16:05:59.042Z,3.20
2022-09-28T16:08:42.733Z,4.70
2022-09-28T16:11:12.552Z,3.90
2022-09-28T16:14:19.336Z,7.90
2022-09-28T16:16:51.218Z,6.63
2022-09-28T16:19:39.001Z,3.85
2022-09-28T16:22:16.326Z,4.20
2022-09-28T16:24:54.961Z,3.38
2022-09-28T16:27:40.069Z,3.38
2022-09-28T16:30:21.711Z,3.45
2022-09-28T16:32:55.588Z,3.33
2022-09-28T16:35:49.633Z,3.03
2022-09-28T16:38:18.234Z,3.58
2022-09-28T16:40:50.257Z,4.85
2022-09-28T16:43:28.444Z,4.80
2022-09-28T16:45:58.052Z,4.30
2022-09-28T16:48:30.165Z,3.45
2022-09-28T16:50:57.728Z,2.90
2022-09-28T16:53:43.939Z,2.78
2022-09-28T16:56:12.516Z,3.35
2022-09-28T16:58:39.339Z,4.63
2022-09-28T17:01:09.703Z,4.20
2022-09-28T17:03:36.580Z,3.47
2022-09-28T17:06:06.283Z,3.30
2022-09-28T17:08:35.523Z,3.22
2022-09-28T17:11:14.741Z,3.47
2022-09-28T17:13:45.264Z,3.40
2022-09-28T17:19:20.070Z,3.35
2022-09-28T17:21:47.272Z,4.07
2022-09-28T17:24:14.360Z,3.20
2022-09-28T17:26:43.990Z,3.50
2022-09-28T17:29:14.959Z,4.57
2022-09-28T17:31:43.311Z,4.03
2022-09-28T17:34:12.838Z,3.97
2022-09-28T17:36:44.735Z,4.32
2022-09-28T17:39:17.564Z,5.03
2022-09-28T17:41:44.775Z,3.97
2022-09-28T17:44:16.049Z,4.60
2022-09-28T17:46:46.343Z,5.23
2022-09-28T17:49:13.338Z,5.47
2022-09-28T17:51:40.357Z,5.82
2022-09-28T17:54:08.257Z,5.93
2022-09-28T17:56:35.943Z,8.27
2022-09-28T17:59:08.049Z,7.82
2022-09-28T18:01:39.077Z,9.57
2022-09-28T18:04:08.781Z,9.02
2022-09-28T18:06:39.449Z,8.27
2022-09-28T18:09:06.294Z,9.60
2022-09-28T18:11:33.837Z,9.43
2022-09-28T18:14:00.855Z,7.18
2022-09-28T18:16:29.167Z,7.25
2022-09-28T18:18:56.680Z,7.13
2022-09-28T18:21:23.668Z,8.13
2022-09-28T18:23:50.751Z,8.52
2022-09-28T18:26:20.988Z,7.70
2022-09-28T18:28:48.011Z,7.75
2022-09-28T18:31:15.739Z,7.63
2022-09-28T18:33:43.356Z,9.30
2022-09-28T18:36:10.144Z,10.05
2022-09-28T18:38:37.871Z,9.65
2022-09-28T18:41:10.075Z,12.32
2022-09-28T18:43:37.171Z,11.25
2022-09-28T18:46:11.372Z,13.90
2022-09-28T18:48:40.505Z,12.85
2022-09-28T18:51:11.370Z,13.60
2022-09-28T18:53:39.690Z,12.65
2022-09-28T18:56:09.259Z,12.63
2022-09-28T18:58:38.707Z,11.95
2022-09-28T19:01:33.789Z,12.88
2022-09-28T19:04:02.391Z,11.98
2022-09-28T19:06:29.940Z,11.85
2022-09-28T19:08:56.846Z,11.10
2022-09-28T19:11:24.632Z,10.65
2022-09-28T19:13:52.920Z,10.88
2022-09-28T19:16:23.158Z,11.88
2022-09-28T19:18:52.403Z,11.23
2022-09-28T19:21:19.542Z,10.77
2022-09-28T19:23:49.693Z,10.50
2022-09-28T19:26:22.786Z,11.02
2022-09-28T19:28:50.149Z,9.75
2022-09-28T19:31:17.845Z,10.32
2022-09-28T19:33:48.176Z,10.48
2022-09-28T19:36:18.487Z,10.38
2022-09-28T19:38:46.197Z,10.32
2022-09-28T19:41:39.270Z,10.50
2022-09-28T19:44:27.674Z,10.35
2022-09-28T19:47:10.041Z,10.13
2022-09-28T19:49:38.562Z,10.70
2022-09-28T19:52:14.415Z,10.57
2022-09-28T19:54:58.413Z,9.60
2022-09-28T19:57:27.668Z,11.02
2022-09-28T19:59:59.261Z,11.63
2022-09-28T20:02:29.113Z,10.98
2022-09-28T20:04:55.987Z,11.35
2022-09-28T20:07:22.790Z,10.32
2022-09-28T20:09:49.816Z,10.63
2022-09-28T20:12:16.584Z,10.63
2022-09-28T20:14:43.329Z,11.18
2022-09-28T20:17:10.344Z,11.02
2022-09-28T20:19:37.273Z,11.10
2022-09-28T20:22:04.092Z,11.18
2022-09-28T20:24:32.024Z,13.25
2022-09-28T20:26:59.309Z,13.45
2022-09-28T20:29:26.701Z,14.02
2022-09-28T20:31:53.481Z,15.40
2022-09-28T20:34:21.730Z,14.43
2022-09-28T20:36:48.455Z,13.98
2022-09-28T20:39:15.321Z,13.38
2022-09-28T20:41:42.364Z,12.85
2022-09-28T20:44:09.945Z,13.75
2022-09-28T20:46:37.214Z,12.38
2022-09-28T20:49:05.381Z,13.02
2022-09-28T20:51:32.159Z,11.10
2022-09-28T20:53:59.920Z,12.00
2022-09-28T20:56:31.048Z,11.90
2022-09-28T20:58:57.813Z,12.05
2022-09-28T21:01:30.050Z,12.15
2022-09-28T21:03:58.878Z,11.65
2022-09-28T21:06:28.346Z,11.07
2022-09-28T21:08:55.468Z,10.90
2022-09-28T21:11:24.223Z,9.73
2022-09-28T21:13:56.065Z,11.43
2022-09-28T21:16:22.813Z,11.00
2022-09-28T21:18:50.023Z,11.30
2022-09-28T21:21:18.767Z,11.90
2022-09-28T21:23:46.057Z,11.35
2022-09-28T21:26:15.950Z,12.25
2022-09-28T21:28:44.851Z,12.43
2022-09-28T21:31:12.900Z,12.13
2022-09-28T21:33:39.747Z,13.40
2022-09-28T21:36:07.777Z,12.98
2022-09-28T21:38:34.920Z,12.30
2022-09-28T21:41:01.859Z,11.88
2022-09-28T21:43:31.544Z,12.70
2022-09-28T21:45:59.274Z,12.52
2022-09-28T21:48:28.885Z,12.60
2022-09-28T21:51:01.511Z,12.80
2022-09-28T21:55:57.391Z,13.30
2022-09-28T21:58:27.670Z,13.73
2022-09-28T22:01:01.286Z,13.18
2022-09-28T22:03:29.233Z,13.32
2022-09-28T22:05:56.279Z,13.60
2022-09-28T22:08:23.937Z,13.45
2022-09-28T22:11:01.347Z,12.85
2022-09-28T22:13:33.956Z,12.90
2022-09-28T22:18:29.819Z,11.98
2022-09-28T22:21:06.455Z,11.95
2022-09-28T22:23:34.354Z,13.00
2022-09-28T22:26:11.174Z,12.85
2022-09-28T22:28:39.980Z,12.27
2022-09-28T22:31:06.943Z,11.82
2022-09-28T22:33:34.208Z,12.13
2022-09-28T22:36:01.083Z,12.95
2022-09-28T22:38:31.041Z,12.70
2022-09-28T22:40:58.316Z,12.77
2022-09-28T22:43:26.698Z,12.15
2022-09-28T22:46:07.827Z,11.20
2022-09-28T22:48:35.105Z,11.30
2022-09-28T22:51:03.389Z,11.82
2022-09-28T22:53:30.363Z,10.65
2022-09-28T22:55:58.819Z,10.63
2022-09-28T22:58:25.573Z,11.18
2022-09-28T23:00:52.351Z,10.05
2022-09-28T23:03:19.411Z,11.43
2022-09-28T23:05:56.511Z,10.85
2022-09-28T23:08:24.116Z,10.27
2022-09-28T23:10:51.679Z,10.55
2022-09-28T23:13:18.927Z,10.55
2022-09-28T23:16:00.075Z,9.60
2022-09-28T23:18:30.174Z,9.43
2022-09-28T23:21:01.926Z,10.20
2022-09-28T23:23:28.806Z,10.10
2022-09-28T23:25:56.358Z,9.73
2022-09-28T23:28:24.985Z,9.15
2022-09-28T23:30:52.398Z,8.93
2022-09-28T23:33:20.727Z,8.85
2022-09-28T23:35:47.622Z,8.50
2022-09-28T23:38:18.008Z,7.82
2022-09-28T23:40:46.451Z,7.60
2022-09-28T23:43:14.196Z,8.52
2022-09-28T23:45:43.905Z,8.75
2022-09-28T23:48:10.696Z,7.60
2022-09-28T23:50:37.488Z,7.45
2022-09-28T23:53:05.580Z,6.95
2022-09-28T23:55:32.521Z,7.30
2022-09-28T23:57:59.311Z,6.07
